Time;durP1;ratioP1;P1;durP2;ratioP2;P2;SDS_P1;SDS_P2;PMS_P1;PMS_P2;Temp;Humidity;BMP_temperature;BMP_pressure;BME280_temperature;BME280_humidity;BME280_pressure;Samples;Min_cycle;Max_cycle;Signal;HPM_P1;HPM_P2
2022/03/31 00:00:38;;;;;;;26.48;12.55;;;6.00;99.90;;;;;;5007218;28;20833;-64
2022/03/31 00:03:11;;;;;;;27.92;13.15;;;6.00;99.90;;;;;;5009765;28;20037;-65
2022/03/31 00:05:37;;;;;;;30.52;14.07;;;6.00;99.90;;;;;;5009825;28;20096;-64
2022/03/31 00:08:09;;;;;;;29.95;13.35;;;6.00;99.90;;;;;;5014481;28;20022;-64
2022/03/31 00:10:40;;;;;;;30.70;13.90;;;6.00;99.90;;;;;;5008395;28;20034;-63
2022/03/31 00:13:10;;;;;;;32.45;13.43;;;6.00;99.90;;;;;;5009210;28;20107;-65
2022/03/31 00:15:35;;;;;;;28.92;13.25;;;6.00;99.90;;;;;;5009268;28;20057;-64
2022/03/31 00:18:04;;;;;;;29.42;13.68;;;6.00;99.90;;;;;;5008914;28;20049;-63
2022/03/31 00:20:29;;;;;;;33.03;14.30;;;6.00;99.90;;;;;;5006698;28;20128;-61
2022/03/31 00:22:55;;;;;;;32.22;13.05;;;6.00;99.90;;;;;;5008256;28;20109;-63
2022/03/31 00:25:23;;;;;;;29.55;13.57;;;6.00;99.90;;;;;;5011347;28;20164;-63
2022/03/31 00:27:50;;;;;;;30.65;13.75;;;5.90;99.90;;;;;;5013514;28;20427;-65
2022/03/31 00:30:15;;;;;;;27.30;12.65;;;6.00;99.90;;;;;;5007642;28;20385;-62
2022/03/31 00:32:41;;;;;;;29.63;13.05;;;6.00;99.90;;;;;;5013557;28;20032;-64
2022/03/31 00:35:10;;;;;;;28.75;12.98;;;5.90;99.90;;;;;;5010019;28;20034;-64
2022/03/31 00:37:37;;;;;;;29.48;13.18;;;5.90;99.90;;;;;;5009975;28;20034;-64
2022/03/31 00:40:04;;;;;;;29.50;13.48;;;5.90;99.90;;;;;;5010056;28;20034;-65
2022/03/31 00:42:29;;;;;;;28.70;12.80;;;5.90;99.90;;;;;;5010790;28;20037;-62
2022/03/31 00:44:55;;;;;;;28.38;12.57;;;5.80;99.90;;;;;;5008739;28;20088;-64
2022/03/31 00:47:21;;;;;;;25.45;12.00;;;5.90;99.90;;;;;;5011750;28;20025;-64
2022/03/31 00:49:48;;;;;;;24.63;11.60;;;5.90;99.90;;;;;;5009782;28;20048;-64
2022/03/31 00:52:14;;;;;;;27.08;12.00;;;5.80;99.90;;;;;;5010228;28;20026;-64
2022/03/31 00:54:41;;;;;;;26.00;11.93;;;5.80;99.90;;;;;;5008582;28;20030;-64
2022/03/31 00:57:10;;;;;;;26.63;12.48;;;5.80;99.90;;;;;;5010906;28;20029;-65
2022/03/31 00:59:36;;;;;;;27.35;12.52;;;5.80;99.90;;;;;;5008949;28;20041;-63
2022/03/31 01:02:03;;;;;;;26.88;12.30;;;5.90;99.90;;;;;;5012225;28;20200;-64
2022/03/31 01:04:29;;;;;;;27.25;12.63;;;5.90;99.90;;;;;;5011612;28;20209;-64
2022/03/31 01:06:56;;;;;;;25.73;12.45;;;5.90;99.90;;;;;;5019600;28;20041;-64
2022/03/31 01:09:22;;;;;;;24.75;11.93;;;5.80;99.90;;;;;;5013070;28;20033;-64
2022/03/31 01:11:47;;;;;;;28.88;12.57;;;5.80;99.90;;;;;;5012262;28;20033;-64
2022/03/31 01:14:14;;;;;;;27.38;12.68;;;5.80;99.90;;;;;;5010460;28;20475;-65
2022/03/31 01:16:41;;;;;;;25.25;11.95;;;5.80;99.90;;;;;;5018121;28;20034;-64
2022/03/31 01:19:09;;;;;;;25.75;12.00;;;5.80;99.90;;;;;;5011766;28;20053;-64
2022/03/31 01:21:40;;;;;;;27.48;12.27;;;5.80;99.90;;;;;;5017282;28;20034;-65
2022/03/31 01:24:07;;;;;;;26.75;11.68;;;5.80;99.90;;;;;;5003843;28;20035;-64
2022/03/31 01:26:38;;;;;;;24.73;11.70;;;5.80;99.90;;;;;;5024078;28;20025;-63
2022/03/31 01:29:03;;;;;;;;;;;5.80;99.90;;;;;;5024091;28;20057;-62
2022/03/31 01:31:30;;;;;;;22.83;10.02;;;5.80;99.90;;;;;;5016062;28;20530;-64
2022/03/31 01:33:57;;;;;;;23.65;11.32;;;5.80;99.90;;;;;;5011323;28;20035;-64
2022/03/31 01:36:24;;;;;;;29.98;12.63;;;5.60;99.90;;;;;;5011263;28;20068;-63
2022/03/31 01:38:49;;;;;;;27.92;12.32;;;5.50;99.90;;;;;;5011506;28;20148;-63
2022/03/31 01:41:15;;;;;;;25.60;12.07;;;5.60;99.90;;;;;;5010730;28;20805;-63
2022/03/31 01:43:42;;;;;;;24.85;11.82;;;5.60;99.90;;;;;;5011023;28;20026;-64
2022/03/31 01:46:10;;;;;;;24.40;11.65;;;5.60;99.90;;;;;;5011254;28;20030;-64
2022/03/31 01:48:36;;;;;;;27.58;11.95;;;5.60;99.90;;;;;;5011374;28;20060;-64
2022/03/31 01:51:05;;;;;;;26.65;11.85;;;5.50;99.90;;;;;;5010562;28;20727;-65
2022/03/31 01:53:38;;;;;;;27.90;12.60;;;5.50;99.90;;;;;;5010980;28;20038;-63
2022/03/31 01:56:04;;;;;;;27.85;13.32;;;5.50;99.90;;;;;;5011712;28;20033;-65
2022/03/31 01:58:30;;;;;;;26.40;12.57;;;5.50;99.90;;;;;;5011497;28;20026;-64
2022/03/31 02:00:57;;;;;;;26.33;12.15;;;5.50;99.90;;;;;;5011313;28;20030;-63
2022/03/31 02:03:23;;;;;;;28.13;12.70;;;5.50;99.90;;;;;;5010080;28;20464;-64
2022/03/31 02:05:50;;;;;;;29.35;12.98;;;5.50;99.90;;;;;;5016579;28;20049;-63
2022/03/31 02:08:16;;;;;;;28.02;13.05;;;5.50;99.90;;;;;;5010162;28;20041;-64
2022/03/31 02:10:42;;;;;;;29.45;12.80;;;5.50;99.90;;;;;;5010468;28;20042;-64
2022/03/31 02:13:08;;;;;;;28.92;13.57;;;5.50;99.90;;;;;;5009385;28;20040;-63
2022/03/31 02:15:34;;;;;;;29.85;13.65;;;5.40;99.90;;;;;;5010367;28;20022;-64
2022/03/31 02:18:03;;;;;;;27.95;12.93;;;5.40;99.90;;;;;;5010946;28;20122;-63
2022/03/31 02:20:30;;;;;;;27.33;13.07;;;5.40;99.90;;;;;;5033264;28;20498;-64
2022/03/31 02:23:00;;;;;;;33.28;13.38;;;5.50;99.90;;;;;;5008933;28;20057;-64
2022/03/31 02:25:26;;;;;;;31.38;13.98;;;5.50;99.90;;;;;;5015726;28;20041;-64
2022/03/31 02:27:52;;;;;;;30.67;14.52;;;5.50;99.90;;;;;;5011112;28;20033;-63
2022/03/31 02:30:19;;;;;;;30.90;13.60;;;5.50;99.90;;;;;;5010243;28;20054;-65
2022/03/31 02:32:45;;;;;;;30.10;13.85;;;5.50;99.90;;;;;;5008449;28;20083;-63
2022/03/31 02:35:11;;;;;;;33.17;14.00;;;5.50;99.90;;;;;;5009656;28;20038;-64
2022/03/31 02:37:37;;;;;;;31.27;14.20;;;5.50;99.90;;;;;;5002426;28;20032;-64
2022/03/31 02:40:04;;;;;;;30.50;13.95;;;5.50;99.90;;;;;;5010239;28;20026;-64
2022/03/31 02:42:29;;;;;;;34.78;15.07;;;5.50;99.90;;;;;;4997557;28;20389;-64
2022/03/31 02:44:55;;;;;;;31.30;14.35;;;5.40;99.90;;;;;;5003805;28;20036;-67
2022/03/31 02:47:21;;;;;;;31.00;14.18;;;5.50;99.90;;;;;;5008097;28;20026;-64
2022/03/31 02:49:47;;;;;;;31.38;13.52;;;5.50;99.90;;;;;;5010337;28;20455;-64
2022/03/31 02:52:13;;;;;;;35.05;14.68;;;5.40;99.90;;;;;;5011900;28;20030;-63
2022/03/31 02:57:23;;;;;;;33.13;14.80;;;5.50;99.90;;;;;;5009127;28;20049;-65
2022/03/31 02:59:48;;;;;;;33.38;14.63;;;5.50;99.90;;;;;;5008659;28;20037;-65
2022/03/31 03:02:14;;;;;;;35.40;14.73;;;5.50;99.90;;;;;;5004740;28;20022;-65
2022/03/31 03:04:40;;;;;;;35.60;15.23;;;5.50;99.90;;;;;;5010149;28;20116;-64
2022/03/31 03:07:05;;;;;;;37.50;15.25;;;5.50;99.90;;;;;;5009250;28;20038;-65
2022/03/31 03:09:31;;;;;;;32.35;14.75;;;5.50;99.90;;;;;;5009476;28;20040;-65
2022/03/31 03:11:57;;;;;;;38.88;15.88;;;5.40;99.90;;;;;;5010331;28;20033;-65
2022/03/31 03:14:23;;;;;;;38.90;16.15;;;5.50;99.90;;;;;;5015859;28;20484;-65
2022/03/31 03:16:48;;;;;;;35.50;15.80;;;5.50;99.90;;;;;;5010337;28;20104;-65
2022/03/31 03:19:14;;;;;;;38.08;15.40;;;5.50;99.90;;;;;;5008950;28;20084;-66
2022/03/31 03:21:41;;;;;;;38.85;16.48;;;5.40;99.90;;;;;;5009047;28;20607;-66
2022/03/31 03:24:07;;;;;;;38.10;15.90;;;5.40;99.90;;;;;;5013083;28;20507;-64
2022/03/31 03:26:33;;;;;;;37.70;15.73;;;5.40;99.90;;;;;;5008908;28;20034;-65
2022/03/31 03:28:58;;;;;;;38.88;15.88;;;5.40;99.90;;;;;;5010775;28;20037;-64
2022/03/31 03:31:24;;;;;;;36.70;15.85;;;5.40;99.90;;;;;;5011680;28;20048;-66
2022/03/31 03:33:50;;;;;;;37.92;16.17;;;5.50;99.90;;;;;;5009040;28;20034;-65
2022/03/31 03:36:19;;;;;;;34.60;15.32;;;5.50;99.90;;;;;;5008164;28;20491;-66
2022/03/31 03:38:45;;;;;;;43.97;16.80;;;5.60;99.90;;;;;;5009458;28;20017;-66
2022/03/31 03:41:12;;;;;;;39.85;16.55;;;5.60;99.90;;;;;;5011063;28;20057;-64
2022/03/31 03:43:42;;;;;;;38.97;16.55;;;5.70;99.90;;;;;;5008832;28;20727;-64
2022/03/31 03:46:09;;;;;;;42.33;17.17;;;5.70;99.90;;;;;;5033368;28;20033;-65
2022/03/31 03:48:35;;;;;;;42.50;17.40;;;5.70;99.90;;;;;;5008811;28;20030;-66
2022/03/31 03:51:01;;;;;;;39.42;17.10;;;5.60;99.90;;;;;;5010846;28;20042;-65
2022/03/31 03:53:26;;;;;;;41.08;15.85;;;5.60;99.90;;;;;;5007062;28;20508;-64
2022/03/31 03:55:52;;;;;;;42.20;17.15;;;5.60;99.90;;;;;;5009069;28;20026;-65
2022/03/31 03:58:18;;;;;;;44.50;17.15;;;5.60;99.90;;;;;;5008976;28;20113;-65
2022/03/31 04:00:44;;;;;;;38.47;16.13;;;5.60;99.90;;;;;;5008679;28;20465;-64
2022/03/31 04:03:10;;;;;;;40.35;16.58;;;5.60;99.90;;;;;;5009365;28;20079;-65
2022/03/31 04:05:38;;;;;;;44.22;18.20;;;5.60;99.90;;;;;;5006315;28;20424;-64
2022/03/31 04:08:04;;;;;;;41.58;16.40;;;5.60;99.90;;;;;;5009186;28;20032;-65
2022/03/31 04:10:32;;;;;;;42.80;17.00;;;5.60;99.90;;;;;;5008185;28;20042;-67
2022/03/31 04:12:58;;;;;;;40.22;15.77;;;5.60;99.90;;;;;;5007458;28;20026;-65
2022/03/31 04:15:24;;;;;;;40.78;16.50;;;5.60;99.90;;;;;;5007616;28;20053;-66
2022/03/31 04:17:49;;;;;;;44.67;17.15;;;5.60;99.90;;;;;;5004794;28;20029;-64
2022/03/31 04:20:15;;;;;;;44.25;17.15;;;5.60;99.90;;;;;;5008616;28;20046;-65
2022/03/31 04:22:41;;;;;;;44.20;17.67;;;5.60;99.90;;;;;;5007620;28;20034;-65
2022/03/31 04:25:09;;;;;;;44.22;18.58;;;5.60;99.90;;;;;;5011651;28;20091;-65
2022/03/31 04:27:36;;;;;;;42.03;16.55;;;5.50;99.90;;;;;;5018178;28;20100;-66
2022/03/31 04:30:03;;;;;;;45.85;18.70;;;5.60;99.90;;;;;;5006751;28;20052;-65
2022/03/31 04:32:30;;;;;;;45.90;17.27;;;5.60;99.90;;;;;;5006711;28;20029;-64
2022/03/31 04:34:55;;;;;;;42.30;16.73;;;5.60;99.90;;;;;;5009283;28;20045;-65
2022/03/31 04:37:21;;;;;;;43.97;17.88;;;5.50;99.90;;;;;;5014178;28;20052;-67
2022/03/31 04:39:47;;;;;;;41.90;16.77;;;5.60;99.90;;;;;;5011060;28;20056;-65
2022/03/31 04:42:12;;;;;;;47.00;18.58;;;5.50;99.90;;;;;;5008848;28;20123;-66
2022/03/31 04:44:38;;;;;;;44.47;17.52;;;5.50;99.90;;;;;;5006589;28;20042;-65
2022/03/31 04:47:05;;;;;;;44.25;18.10;;;5.50;99.90;;;;;;5008076;28;20037;-65
2022/03/31 04:49:31;;;;;;;39.95;16.15;;;5.50;99.90;;;;;;5007889;28;20477;-65
2022/03/31 04:51:57;;;;;;;43.60;18.13;;;5.50;99.90;;;;;;5008676;28;20030;-65
2022/03/31 04:54:22;;;;;;;42.17;16.95;;;5.60;99.90;;;;;;5008073;28;20733;-66
2022/03/31 04:56:48;;;;;;;46.53;18.08;;;5.60;99.90;;;;;;5007950;28;20513;-64
2022/03/31 04:59:14;;;;;;;41.80;17.15;;;5.50;99.90;;;;;;5008785;28;20109;-65
2022/03/31 05:01:40;;;;;;;42.08;16.65;;;5.50;99.90;;;;;;5009271;28;20041;-65
2022/03/31 05:04:05;;;;;;;44.60;17.60;;;5.50;99.90;;;;;;5010347;28;20054;-64
2022/03/31 05:06:31;;;;;;;45.85;17.55;;;5.50;99.90;;;;;;5007179;28;20100;-65
2022/03/31 05:08:57;;;;;;;45.25;17.70;;;5.50;99.90;;;;;;5007140;28;20119;-64
2022/03/31 05:11:23;;;;;;;39.83;18.02;;;5.50;99.90;;;;;;5007337;28;20467;-64
2022/03/31 05:13:48;;;;;;;43.60;17.38;;;5.50;99.90;;;;;;5006021;28;20072;-64
2022/03/31 05:16:14;;;;;;;45.95;17.05;;;5.50;99.90;;;;;;5008226;28;20065;-65
2022/03/31 05:18:40;;;;;;;45.22;17.58;;;5.50;99.90;;;;;;5014412;28;20059;-64
2022/03/31 05:21:05;;;;;;;45.25;18.30;;;5.50;99.90;;;;;;5006752;28;20034;-65
2022/03/31 05:23:31;;;;;;;53.33;19.48;;;5.40;99.90;;;;;;5013202;28;20525;-65
2022/03/31 05:25:57;;;;;;;48.92;18.85;;;5.40;99.90;;;;;;5012836;28;20033;-64
2022/03/31 05:28:23;;;;;;;46.70;17.98;;;5.40;99.90;;;;;;5031430;28;20038;-65
2022/03/31 05:30:49;;;;;;;47.28;18.05;;;5.40;99.90;;;;;;5014866;28;20496;-65
2022/03/31 05:33:15;;;;;;;56.50;20.27;;;5.30;99.90;;;;;;5008257;28;20429;-64
2022/03/31 05:35:41;;;;;;;50.55;20.10;;;5.30;99.90;;;;;;5007549;28;20077;-65
2022/03/31 05:38:07;;;;;;;48.53;20.48;;;5.30;99.90;;;;;;5007462;28;20057;-65
2022/03/31 05:40:32;;;;;;;53.72;19.95;;;5.30;99.90;;;;;;5007016;28;20064;-66
2022/03/31 05:42:58;;;;;;;53.90;20.92;;;5.30;99.90;;;;;;5007612;28;20058;-66
2022/03/31 05:45:25;;;;;;;61.50;20.80;;;5.30;99.90;;;;;;5008276;28;20473;-66
2022/03/31 05:47:53;;;;;;;62.20;20.38;;;5.30;99.90;;;;;;5011641;28;20042;-65
2022/03/31 05:50:18;;;;;;;60.33;21.45;;;5.30;99.90;;;;;;5011279;28;20077;-65
2022/03/31 05:52:44;;;;;;;57.63;21.63;;;5.20;99.90;;;;;;5010206;28;20293;-65
2022/03/31 05:55:12;;;;;;;59.17;20.90;;;5.20;99.90;;;;;;5012076;28;20607;-65
2022/03/31 05:57:38;;;;;;;55.10;20.48;;;5.20;99.90;;;;;;5010915;28;20037;-65
2022/03/31 06:00:06;;;;;;;60.45;22.25;;;5.20;99.90;;;;;;5010845;28;20041;-64
2022/03/31 06:02:31;;;;;;;61.63;21.10;;;5.20;99.90;;;;;;5009724;28;20033;-65
2022/03/31 06:04:57;;;;;;;59.70;21.77;;;5.10;99.90;;;;;;5012504;28;20100;-65
2022/03/31 06:07:23;;;;;;;65.88;22.17;;;5.10;99.90;;;;;;5008909;28;20568;-63
2022/03/31 06:09:48;;;;;;;58.97;21.15;;;5.10;99.90;;;;;;5002187;28;20057;-65
2022/03/31 06:12:14;;;;;;;56.83;20.55;;;5.10;99.90;;;;;;5014549;28;20435;-65
2022/03/31 06:14:40;;;;;;;58.00;22.10;;;5.10;99.90;;;;;;5010084;28;20567;-65
2022/03/31 06:17:05;;;;;;;61.40;22.48;;;5.10;99.90;;;;;;5011054;28;20053;-65
2022/03/31 06:19:32;;;;;;;70.38;22.65;;;5.10;99.90;;;;;;5012436;28;20091;-65
2022/03/31 06:21:57;;;;;;;57.78;21.35;;;5.10;99.90;;;;;;5009970;28;20034;-65
2022/03/31 06:24:23;;;;;;;71.20;22.80;;;5.10;99.90;;;;;;5009134;28;20030;-65
2022/03/31 06:26:49;;;;;;;67.53;22.35;;;5.20;99.90;;;;;;5016491;28;20141;-65
2022/03/31 06:29:15;;;;;;;66.68;22.38;;;5.10;99.90;;;;;;5010640;28;20032;-65
2022/03/31 06:31:41;;;;;;;60.30;22.83;;;5.20;99.90;;;;;;5009302;28;20070;-64
2022/03/31 06:34:07;;;;;;;62.28;21.25;;;5.20;99.90;;;;;;5002831;28;20033;-65
2022/03/31 06:36:33;;;;;;;64.85;21.50;;;5.20;99.90;;;;;;5016929;28;20029;-65
2022/03/31 06:38:59;;;;;;;63.00;21.58;;;5.20;99.90;;;;;;5010303;28;20479;-65
2022/03/31 06:41:25;;;;;;;63.65;21.80;;;5.30;99.90;;;;;;5010787;28;20052;-65
2022/03/31 06:43:51;;;;;;;64.85;21.85;;;5.20;99.90;;;;;;5008875;28;20860;-65
2022/03/31 06:46:17;;;;;;;60.85;21.58;;;5.20;99.90;;;;;;5009110;28;20026;-64
2022/03/31 06:48:48;;;;;;;62.42;21.23;;;5.30;99.90;;;;;;5012769;28;20030;-65
2022/03/31 06:51:15;;;;;;;59.70;21.73;;;5.30;99.90;;;;;;5010812;28;20084;-64
2022/03/31 06:53:41;;;;;;;62.67;21.55;;;5.30;99.90;;;;;;5009633;28;20053;-65
2022/03/31 06:56:10;;;;;;;55.78;20.38;;;5.30;99.90;;;;;;5003324;28;20030;-65
2022/03/31 06:58:36;;;;;;;54.40;20.27;;;5.40;99.90;;;;;;5012858;28;20044;-65
2022/03/31 07:01:03;;;;;;;52.65;20.45;;;5.50;99.90;;;;;;5007917;28;20480;-66
2022/03/31 07:03:29;;;;;;;51.65;20.02;;;5.60;99.90;;;;;;5009708;28;20030;-66
2022/03/31 07:05:55;;;;;;;54.88;20.20;;;5.60;99.90;;;;;;5008659;28;20052;-65
2022/03/31 07:08:21;;;;;;;59.90;20.58;;;5.60;99.90;;;;;;5012154;28;20095;-64
2022/03/31 07:10:47;;;;;;;63.55;22.13;;;5.50;99.90;;;;;;5014495;28;20045;-63
2022/03/31 07:13:13;;;;;;;58.97;20.98;;;5.50;99.90;;;;;;5011374;28;20373;-65
2022/03/31 07:15:39;;;;;;;59.88;21.33;;;5.50;99.90;;;;;;5008180;28;20052;-65
2022/03/31 07:18:05;;;;;;;58.58;21.50;;;5.40;99.90;;;;;;5008853;28;20062;-65
2022/03/31 07:20:32;;;;;;;61.42;21.58;;;5.40;99.90;;;;;;5010373;28;20068;-65
2022/03/31 07:22:59;;;;;;;59.70;22.55;;;5.50;99.90;;;;;;5009819;28;20538;-64
2022/03/31 07:25:26;;;;;;;58.08;21.65;;;5.50;99.90;;;;;;5009516;28;20476;-64
2022/03/31 07:27:52;;;;;;;61.15;22.05;;;5.50;99.90;;;;;;5009201;28;20053;-64
2022/03/31 07:30:20;;;;;;;62.97;22.00;;;5.50;99.90;;;;;;5009030;28;20550;-65
2022/03/31 07:32:47;;;;;;;56.97;20.92;;;5.60;99.90;;;;;;5008767;28;20492;-65
2022/03/31 07:35:13;;;;;;;56.90;21.25;;;5.70;99.90;;;;;;5002913;28;20080;-65
2022/03/31 07:37:39;;;;;;;60.30;21.55;;;5.70;99.90;;;;;;5008600;28;20026;-64
2022/03/31 07:40:05;;;;;;;60.42;20.90;;;5.70;99.90;;;;;;5009875;28;20030;-63
2022/03/31 07:42:31;;;;;;;58.50;21.05;;;5.70;99.90;;;;;;5008906;28;20547;-66
2022/03/31 07:44:56;;;;;;;66.55;22.08;;;5.70;99.90;;;;;;5009203;28;20034;-64
2022/03/31 07:47:22;;;;;;;66.90;25.50;;;5.80;99.90;;;;;;5009156;28;20030;-65
2022/03/31 07:49:49;;;;;;;56.10;22.67;;;5.80;99.90;;;;;;5008326;28;20049;-65
2022/03/31 07:52:15;;;;;;;64.85;22.30;;;5.70;99.90;;;;;;5009153;28;20056;-65
2022/03/31 07:54:41;;;;;;;60.22;21.83;;;5.70;99.90;;;;;;5008499;28;20056;-65
2022/03/31 07:57:07;;;;;;;51.70;21.45;;;5.70;99.90;;;;;;5009655;28;20798;-65
2022/03/31 07:59:33;;;;;;;58.08;21.67;;;5.70;99.90;;;;;;5008004;28;20476;-66
2022/03/31 08:02:00;;;;;;;56.65;20.50;;;5.80;99.90;;;;;;5008245;28;20101;-65
2022/03/31 08:04:27;;;;;;;61.28;21.10;;;5.90;99.90;;;;;;5008957;28;20058;-65
2022/03/31 08:06:53;;;;;;;59.28;20.63;;;5.90;99.90;;;;;;5006203;28;20727;-63
2022/03/31 08:09:21;;;;;;;53.90;21.02;;;5.90;99.90;;;;;;5006949;28;20022;-65
2022/03/31 08:11:49;;;;;;;57.13;21.55;;;6.00;99.90;;;;;;5005739;28;20080;-63
2022/03/31 08:14:16;;;;;;;54.70;20.52;;;6.10;99.90;;;;;;5008431;28;20068;-64
2022/03/31 08:16:46;;;;;;;53.92;20.92;;;6.10;99.90;;;;;;5007774;28;20829;-65
2022/03/31 08:19:12;;;;;;;60.40;21.70;;;6.20;99.90;;;;;;5007732;28;20048;-65
2022/03/31 08:21:38;;;;;;;55.60;21.27;;;6.30;99.90;;;;;;5010882;28;20112;-64
2022/03/31 08:24:05;;;;;;;55.53;20.00;;;6.40;99.90;;;;;;5008646;28;20501;-64
2022/03/31 08:26:30;;;;;;;51.17;20.13;;;6.50;99.90;;;;;;5005584;28;20025;-65
2022/03/31 08:28:56;;;;;;;52.95;20.35;;;6.50;99.90;;;;;;5008215;28;21082;-65
2022/03/31 08:31:22;;;;;;;53.65;20.10;;;6.50;99.90;;;;;;5008321;28;20045;-63
2022/03/31 08:33:48;;;;;;;55.15;19.98;;;6.50;99.90;;;;;;5008310;28;20076;-64
2022/03/31 08:36:14;;;;;;;56.35;21.17;;;6.50;99.90;;;;;;5008827;28;20022;-65
2022/03/31 08:38:39;;;;;;;53.35;19.85;;;6.60;99.90;;;;;;5007962;28;20041;-65
2022/03/31 08:41:06;;;;;;;55.75;20.33;;;6.70;99.90;;;;;;5008657;28;20034;-64
2022/03/31 08:43:34;;;;;;;50.33;19.45;;;6.90;99.90;;;;;;5008491;28;20546;-65
2022/03/31 08:45:59;;;;;;;50.72;19.05;;;6.90;99.90;;;;;;5008228;28;20026;-65
2022/03/31 08:48:28;;;;;;;50.90;19.75;;;6.90;99.90;;;;;;5008688;28;20045;-66
2022/03/31 08:50:54;;;;;;;51.10;19.60;;;7.10;99.90;;;;;;5007945;28;20041;-64
2022/03/31 08:53:20;;;;;;;48.42;18.88;;;7.20;99.90;;;;;;5008880;28;20026;-65
2022/03/31 08:55:45;;;;;;;48.55;19.35;;;7.30;99.90;;;;;;5007847;28;20400;-65
2022/03/31 08:58:11;;;;;;;41.90;18.05;;;7.60;99.90;;;;;;5008930;28;20030;-65
2022/03/31 09:00:37;;;;;;;44.25;18.80;;;7.80;99.90;;;;;;5007950;28;20124;-64
2022/03/31 09:03:07;;;;;;;47.80;18.65;;;7.80;99.90;;;;;;5008176;28;20041;-65
2022/03/31 09:05:52;;;;;;;39.38;16.75;;;8.10;99.90;;;;;;5008655;28;20058;-64
2022/03/31 09:08:18;;;;;;;46.28;18.85;;;8.10;99.90;;;;;;5008832;28;20037;-64
2022/03/31 09:10:48;;;;;;;39.33;16.98;;;8.00;99.90;;;;;;5007836;28;20042;-64
2022/03/31 09:13:31;;;;;;;40.75;17.00;;;8.20;99.90;;;;;;5008779;28;20030;-65
2022/03/31 09:16:13;;;;;;;41.17;17.25;;;8.20;99.90;;;;;;5006152;28;20030;-65
2022/03/31 09:18:43;;;;;;;39.05;17.20;;;8.30;99.90;;;;;;5005838;28;20091;-64
2022/03/31 09:21:10;;;;;;;42.40;18.42;;;8.40;99.90;;;;;;5009812;28;20536;-64
2022/03/31 09:23:41;;;;;;;43.35;17.13;;;8.60;99.90;;;;;;5011468;28;20065;-64
2022/03/31 09:26:12;;;;;;;40.05;16.95;;;8.70;99.90;;;;;;5014013;28;20041;-64
2022/03/31 09:28:38;;;;;;;39.40;16.50;;;8.60;99.90;;;;;;5008793;28;20038;-64
2022/03/31 09:31:12;;;;;;;49.10;21.70;;;8.60;99.90;;;;;;5011197;28;20531;-64
2022/03/31 09:33:48;;;;;;;49.80;22.40;;;8.60;99.90;;;;;;5007163;28;20029;-65
2022/03/31 09:36:22;;;;;;;48.13;21.02;;;8.80;99.90;;;;;;5011831;28;20026;-64
2022/03/31 09:38:54;;;;;;;46.20;20.55;;;8.80;99.90;;;;;;5010794;28;20124;-64
2022/03/31 09:41:29;;;;;;;48.30;21.67;;;8.90;99.90;;;;;;5011520;28;20061;-64
2022/03/31 09:43:57;;;;;;;53.55;22.35;;;9.10;99.90;;;;;;5011267;28;20030;-63
2022/03/31 09:46:33;;;;;;;48.95;21.10;;;9.20;99.90;;;;;;5011803;28;20030;-64
2022/03/31 09:49:17;;;;;;;49.83;21.10;;;9.30;99.90;;;;;;5011104;28;20666;-65
2022/03/31 09:51:54;;;;;;;42.10;19.08;;;9.50;99.90;;;;;;5008764;28;20103;-65
2022/03/31 09:54:25;;;;;;;41.20;18.88;;;9.80;99.90;;;;;;5011068;28;20022;-65
2022/03/31 09:56:51;;;;;;;39.40;18.17;;;10.20;99.90;;;;;;5011440;28;20127;-64
2022/03/31 09:59:18;;;;;;;39.80;17.52;;;10.30;99.90;;;;;;5010618;28;20037;-64
2022/03/31 10:01:45;;;;;;;35.83;15.73;;;10.10;99.90;;;;;;5010024;28;20033;-65
2022/03/31 10:04:13;;;;;;;29.67;14.13;;;9.90;99.90;;;;;;5010150;28;20207;-64
2022/03/31 10:06:42;;;;;;;39.58;17.23;;;9.80;99.90;;;;;;5010987;28;20053;-64
2022/03/31 10:09:10;;;;;;;33.23;15.60;;;9.70;99.90;;;;;;5010755;28;20030;-65
2022/03/31 10:11:44;;;;;;;34.47;15.50;;;9.80;99.90;;;;;;5010458;28;20034;-64
2022/03/31 10:14:25;;;;;;;32.03;15.23;;;9.90;99.90;;;;;;5010258;28;20048;-64
2022/03/31 10:16:57;;;;;;;36.08;16.40;;;9.90;99.90;;;;;;5008849;28;20566;-64
2022/03/31 10:19:29;;;;;;;32.60;14.82;;;9.80;99.90;;;;;;5011106;28;20065;-64
2022/03/31 10:25:08;;;;;;;34.53;15.15;;;9.50;99.90;;;;;;5009416;28;20144;-64
2022/03/31 10:27:36;;;;;;;33.78;15.13;;;9.40;99.90;;;;;;5006257;28;20029;-64
2022/03/31 10:30:12;;;;;;;36.42;15.82;;;9.30;99.90;;;;;;5010054;28;20124;-64
2022/03/31 10:32:53;;;;;;;33.58;14.18;;;9.10;99.90;;;;;;5009760;28;20038;-64
2022/03/31 10:35:24;;;;;;;33.28;13.95;;;9.10;99.90;;;;;;5007263;28;20038;-64
2022/03/31 10:37:50;;;;;;;29.88;14.18;;;9.10;99.90;;;;;;5009807;28;20076;-63
2022/03/31 10:40:34;;;;;;;27.95;12.50;;;9.20;99.90;;;;;;5008209;28;20038;-65
2022/03/31 10:43:00;;;;;;;29.23;13.38;;;9.20;99.90;;;;;;5008041;28;20026;-65
2022/03/31 10:45:43;;;;;;;38.60;17.73;;;9.30;99.90;;;;;;5014201;28;20033;-65
2022/03/31 10:48:20;;;;;;;30.70;13.25;;;9.40;99.90;;;;;;5015699;28;20037;-63
2022/03/31 10:51:07;;;;;;;31.58;12.48;;;9.40;99.90;;;;;;5016059;28;20049;-65
2022/03/31 10:53:35;;;;;;;29.13;12.40;;;9.50;99.90;;;;;;5001568;28;20052;-64
2022/03/31 10:56:02;;;;;;;45.45;18.00;;;9.60;99.90;;;;;;5006723;28;20036;-64
2022/03/31 10:58:30;;;;;;;50.95;19.27;;;9.60;99.90;;;;;;5008097;28;20480;-64
2022/03/31 11:01:03;;;;;;;33.67;14.35;;;9.40;99.90;;;;;;5008580;28;20037;-65
2022/03/31 11:03:29;;;;;;;35.83;16.10;;;9.50;99.90;;;;;;5010678;28;20034;-64
2022/03/31 11:05:59;;;;;;;34.53;14.93;;;9.60;99.90;;;;;;5008040;28;20046;-64
2022/03/31 11:08:24;;;;;;;33.03;13.10;;;9.40;99.90;;;;;;5016410;28;20073;-64
2022/03/31 11:10:52;;;;;;;32.30;13.85;;;9.50;99.90;;;;;;5007093;28;20077;-62
2022/03/31 11:13:29;;;;;;;31.13;13.43;;;9.50;99.90;;;;;;5010311;28;20034;-64
2022/03/31 11:15:55;;;;;;;29.80;13.18;;;9.50;99.90;;;;;;5015238;28;20037;-65
2022/03/31 11:18:21;;;;;;;34.90;15.77;;;9.50;99.90;;;;;;5009999;28;20112;-64
2022/03/31 11:21:04;;;;;;;34.17;15.10;;;9.40;99.90;;;;;;5009389;28;20485;-63
2022/03/31 11:23:31;;;;;;;32.13;14.15;;;9.30;99.90;;;;;;5003027;28;20108;-64
2022/03/31 11:25:57;;;;;;;34.53;14.35;;;9.20;99.90;;;;;;5009070;28;20033;-63
2022/03/31 11:28:28;;;;;;;33.97;14.63;;;9.20;99.90;;;;;;5009967;28;20034;-64
2022/03/31 11:30:54;;;;;;;;;;;9.30;99.90;;;;;;5009271;28;20048;-63
2022/03/31 11:33:20;;;;;;;36.33;15.05;;;9.30;99.90;;;;;;5008373;28;20360;-64
2022/03/31 11:35:51;;;;;;;35.67;14.52;;;9.10;99.90;;;;;;5015429;28;20500;-64
2022/03/31 11:38:20;;;;;;;35.92;14.70;;;9.10;99.90;;;;;;5006917;28;20029;-64
2022/03/31 11:40:49;;;;;;;33.83;14.38;;;9.10;99.90;;;;;;5010044;28;20033;-65
2022/03/31 11:43:21;;;;;;;35.70;14.65;;;9.10;99.90;;;;;;5013398;28;20017;-64
2022/03/31 11:45:50;;;;;;;32.90;14.13;;;9.00;99.90;;;;;;5008351;28;20026;-65
2022/03/31 11:48:18;;;;;;;36.67;15.35;;;9.00;99.90;;;;;;5009478;28;20564;-64
2022/03/31 11:50:59;;;;;;;32.20;13.65;;;8.90;99.90;;;;;;5008502;28;20033;-64
2022/03/31 11:53:39;;;;;;;39.42;15.00;;;8.90;99.90;;;;;;5020481;28;20030;-64
2022/03/31 11:56:15;;;;;;;38.45;14.95;;;8.90;99.90;;;;;;5002805;28;20701;-64
2022/03/31 11:58:50;;;;;;;37.83;15.80;;;8.90;99.90;;;;;;5008552;28;20057;-64
2022/03/31 12:01:22;;;;;;;38.55;14.52;;;8.90;99.90;;;;;;5008726;28;20037;-64
2022/03/31 12:03:48;;;;;;;37.83;15.73;;;8.90;99.90;;;;;;5008895;28;20034;-65
2022/03/31 12:06:14;;;;;;;33.83;14.57;;;8.80;99.90;;;;;;5009262;28;20084;-64
2022/03/31 12:08:40;;;;;;;37.38;14.70;;;8.90;99.90;;;;;;5010801;28;20034;-63
2022/03/31 12:11:07;;;;;;;40.95;15.75;;;9.00;99.90;;;;;;5011011;28;20030;-64
2022/03/31 12:13:48;;;;;;;37.85;14.77;;;9.00;99.90;;;;;;5008287;28;20034;-64
2022/03/31 12:16:14;;;;;;;36.97;15.02;;;9.00;99.90;;;;;;5010257;28;20018;-66
2022/03/31 12:18:43;;;;;;;36.92;14.95;;;9.00;99.90;;;;;;5012277;28;20464;-63
2022/03/31 12:21:10;;;;;;;33.35;14.52;;;9.00;99.90;;;;;;5006041;28;20030;-65
2022/03/31 12:23:43;;;;;;;38.80;15.63;;;9.00;99.90;;;;;;5007698;28;20041;-64
2022/03/31 12:26:19;;;;;;;38.58;15.57;;;9.10;99.90;;;;;;5008246;28;20018;-63
2022/03/31 12:28:46;;;;;;;34.83;14.40;;;9.10;99.90;;;;;;5008806;28;20507;-64
2022/03/31 12:31:23;;;;;;;35.38;14.95;;;9.10;99.90;;;;;;5007623;28;20070;-63
2022/03/31 12:33:53;;;;;;;37.45;15.50;;;9.20;99.90;;;;;;5008316;28;20468;-64
2022/03/31 12:36:34;;;;;;;35.70;14.73;;;9.20;99.90;;;;;;5008409;28;20026;-64
2022/03/31 12:39:06;;;;;;;37.05;15.68;;;9.30;99.90;;;;;;5007481;28;20034;-65
2022/03/31 12:41:36;;;;;;;36.35;14.85;;;9.30;99.90;;;;;;5005591;28;20037;-64
2022/03/31 12:44:12;;;;;;;31.20;13.38;;;9.20;99.90;;;;;;5004809;28;20026;-64
2022/03/31 12:46:59;;;;;;;38.35;15.02;;;9.10;99.90;;;;;;5004767;28;20126;-64